sensor_id;sensor_type;location;lat;lon;timestamp;temperature;humidity
35603;DHT22;21725;50.836;4.368;2023-04-28T00:02:04;12.40;98.10
35603;DHT22;21725;50.836;4.368;2023-04-28T00:05:07;12.60;98.10
35603;DHT22;21725;50.836;4.368;2023-04-28T00:08:13;12.60;98.60
35603;DHT22;21725;50.836;4.368;2023-04-28T00:11:24;12.80;98.90
35603;DHT22;21725;50.836;4.368;2023-04-28T00:14:30;12.80;98.80
35603;DHT22;21725;50.836;4.368;2023-04-28T00:17:36;12.90;98.90
35603;DHT22;21725;50.836;4.368;2023-04-28T00:21:06;12.90;99.10
35603;DHT22;21725;50.836;4.368;2023-04-28T00:24:10;12.40;99.20
35603;DHT22;21725;50.836;4.368;2023-04-28T00:27:15;12.90;99.40
35603;DHT22;21725;50.836;4.368;2023-04-28T00:30:16;12.90;99.70
35603;DHT22;21725;50.836;4.368;2023-04-28T00:33:25;12.80;99.90
35603;DHT22;21725;50.836;4.368;2023-04-28T00:36:26;12.80;99.90
35603;DHT22;21725;50.836;4.368;2023-04-28T00:39:44;12.60;99.90
35603;DHT22;21725;50.836;4.368;2023-04-28T00:43:23;12.70;99.90
35603;DHT22;21725;50.836;4.368;2023-04-28T00:46:48;12.70;99.90
35603;DHT22;21725;50.836;4.368;2023-04-28T00:49:49;12.80;99.90
35603;DHT22;21725;50.836;4.368;2023-04-28T00:53:13;12.80;99.90
35603;DHT22;21725;50.836;4.368;2023-04-28T00:56:16;12.60;99.90
35603;DHT22;21725;50.836;4.368;2023-04-28T00:59:17;12.50;99.90
35603;DHT22;21725;50.836;4.368;2023-04-28T01:02:23;12.50;99.90
35603;DHT22;21725;50.836;4.368;2023-04-28T01:05:27;12.40;99.90
35603;DHT22;21725;50.836;4.368;2023-04-28T01:08:40;12.50;99.90
35603;DHT22;21725;50.836;4.368;2023-04-28T01:11:46;12.40;99.90
35603;DHT22;21725;50.836;4.368;2023-04-28T01:14:58;12.40;99.90
35603;DHT22;21725;50.836;4.368;2023-04-28T01:18:17;12.20;99.90
35603;DHT22;21725;50.836;4.368;2023-04-28T01:21:31;12.30;99.90
35603;DHT22;21725;50.836;4.368;2023-04-28T01:24:35;12.30;99.90
35603;DHT22;21725;50.836;4.368;2023-04-28T01:27:38;12.40;99.90
35603;DHT22;21725;50.836;4.368;2023-04-28T01:30:45;12.40;99.90
35603;DHT22;21725;50.836;4.368;2023-04-28T01:34:01;12.30;99.90
35603;DHT22;21725;50.836;4.368;2023-04-28T01:37:10;12.20;99.90
35603;DHT22;21725;50.836;4.368;2023-04-28T01:40:11;12.10;99.90
35603;DHT22;21725;50.836;4.368;2023-04-28T01:43:14;11.80;99.90
35603;DHT22;21725;50.836;4.368;2023-04-28T01:46:22;11.50;99.90
35603;DHT22;21725;50.836;4.368;2023-04-28T01:49:23;11.40;99.90
35603;DHT22;21725;50.836;4.368;2023-04-28T01:52:34;11.50;99.90
35603;DHT22;21725;50.836;4.368;2023-04-28T01:55:44;11.50;99.90
35603;DHT22;21725;50.836;4.368;2023-04-28T01:58:48;11.40;99.90
35603;DHT22;21725;50.836;4.368;2023-04-28T02:01:51;11.50;99.90
35603;DHT22;21725;50.836;4.368;2023-04-28T02:04:58;11.10;99.90
35603;DHT22;21725;50.836;4.368;2023-04-28T02:08:07;11.50;99.90
35603;DHT22;21725;50.836;4.368;2023-04-28T02:11:13;11.70;99.90
35603;DHT22;21725;50.836;4.368;2023-04-28T02:14:26;12.00;99.90
35603;DHT22;21725;50.836;4.368;2023-04-28T02:17:37;12.20;99.90
35603;DHT22;21725;50.836;4.368;2023-04-28T02:20:38;12.30;99.90
35603;DHT22;21725;50.836;4.368;2023-04-28T02:23:47;12.30;99.90
35603;DHT22;21725;50.836;4.368;2023-04-28T02:26:52;12.30;99.90
35603;DHT22;21725;50.836;4.368;2023-04-28T02:30:10;12.30;99.90
35603;DHT22;21725;50.836;4.368;2023-04-28T02:33:18;12.30;99.90
35603;DHT22;21725;50.836;4.368;2023-04-28T02:36:19;12.30;99.90
35603;DHT22;21725;50.836;4.368;2023-04-28T02:39:37;12.30;99.90
35603;DHT22;21725;50.836;4.368;2023-04-28T02:42:56;12.40;99.90
35603;DHT22;21725;50.836;4.368;2023-04-28T02:46:02;12.30;99.90
35603;DHT22;21725;50.836;4.368;2023-04-28T02:49:10;12.30;99.90
35603;DHT22;21725;50.836;4.368;2023-04-28T02:52:16;12.30;99.90
35603;DHT22;21725;50.836;4.368;2023-04-28T02:55:26;12.10;99.90
35603;DHT22;21725;50.836;4.368;2023-04-28T02:58:42;12.20;99.90
35603;DHT22;21725;50.836;4.368;2023-04-28T03:01:45;11.80;99.90
35603;DHT22;21725;50.836;4.368;2023-04-28T03:05:01;11.50;99.90
35603;DHT22;21725;50.836;4.368;2023-04-28T03:08:04;11.90;99.90
35603;DHT22;21725;50.836;4.368;2023-04-28T03:11:07;12.00;99.90
35603;DHT22;21725;50.836;4.368;2023-04-28T03:14:13;12.00;99.90
35603;DHT22;21725;50.836;4.368;2023-04-28T03:17:18;12.10;99.90
35603;DHT22;21725;50.836;4.368;2023-04-28T03:20:28;12.20;99.90
35603;DHT22;21725;50.836;4.368;2023-04-28T03:23:38;12.10;99.90
35603;DHT22;21725;50.836;4.368;2023-04-28T03:26:45;12.10;99.90
35603;DHT22;21725;50.836;4.368;2023-04-28T03:29:53;12.00;99.90
35603;DHT22;21725;50.836;4.368;2023-04-28T03:33:01;12.00;99.90
35603;DHT22;21725;50.836;4.368;2023-04-28T03:36:06;12.10;99.90
35603;DHT22;21725;50.836;4.368;2023-04-28T03:39:12;12.30;99.90
35603;DHT22;21725;50.836;4.368;2023-04-28T03:42:23;12.30;99.90
35603;DHT22;21725;50.836;4.368;2023-04-28T03:45:34;12.40;99.90
35603;DHT22;21725;50.836;4.368;2023-04-28T03:48:54;12.50;99.90
35603;DHT22;21725;50.836;4.368;2023-04-28T03:51:58;12.50;99.90
35603;DHT22;21725;50.836;4.368;2023-04-28T03:55:21;12.30;99.90
35603;DHT22;21725;50.836;4.368;2023-04-28T03:58:24;12.20;99.90
35603;DHT22;21725;50.836;4.368;2023-04-28T04:01:33;12.30;99.90
35603;DHT22;21725;50.836;4.368;2023-04-28T04:04:37;12.50;99.90
35603;DHT22;21725;50.836;4.368;2023-04-28T04:07:47;12.30;99.90
35603;DHT22;21725;50.836;4.368;2023-04-28T04:11:00;12.60;99.90
35603;DHT22;21725;50.836;4.368;2023-04-28T04:14:06;12.50;99.90
35603;DHT22;21725;50.836;4.368;2023-04-28T04:17:25;12.80;99.90
35603;DHT22;21725;50.836;4.368;2023-04-28T04:20:31;12.90;99.90
35603;DHT22;21725;50.836;4.368;2023-04-28T04:24:07;12.90;99.90
35603;DHT22;21725;50.836;4.368;2023-04-28T04:27:13;12.80;99.90
35603;DHT22;21725;50.836;4.368;2023-04-28T04:30:17;12.50;99.90
35603;DHT22;21725;50.836;4.368;2023-04-28T04:33:23;12.60;99.90
35603;DHT22;21725;50.836;4.368;2023-04-28T04:36:38;12.60;99.90
35603;DHT22;21725;50.836;4.368;2023-04-28T04:39:42;12.80;99.90
35603;DHT22;21725;50.836;4.368;2023-04-28T04:42:48;13.30;99.90
35603;DHT22;21725;50.836;4.368;2023-04-28T04:45:49;13.00;99.90
35603;DHT22;21725;50.836;4.368;2023-04-28T04:48:50;13.10;99.90
35603;DHT22;21725;50.836;4.368;2023-04-28T04:52:03;13.10;99.90
35603;DHT22;21725;50.836;4.368;2023-04-28T04:55:11;13.10;99.90
35603;DHT22;21725;50.836;4.368;2023-04-28T04:58:23;13.20;99.90
35603;DHT22;21725;50.836;4.368;2023-04-28T05:01:26;13.20;99.90
35603;DHT22;21725;50.836;4.368;2023-04-28T05:04:27;13.30;99.90
35603;DHT22;21725;50.836;4.368;2023-04-28T05:07:28;13.30;99.90
35603;DHT22;21725;50.836;4.368;2023-04-28T05:10:32;13.30;99.90
35603;DHT22;21725;50.836;4.368;2023-04-28T05:13:33;13.30;99.90
35603;DHT22;21725;50.836;4.368;2023-04-28T05:16:38;13.40;99.90
35603;DHT22;21725;50.836;4.368;2023-04-28T05:19:42;13.50;99.90
35603;DHT22;21725;50.836;4.368;2023-04-28T05:22:53;13.50;99.90
35603;DHT22;21725;50.836;4.368;2023-04-28T05:26:00;13.70;99.90
35603;DHT22;21725;50.836;4.368;2023-04-28T05:29:03;13.90;99.90
35603;DHT22;21725;50.836;4.368;2023-04-28T05:32:26;13.90;99.90
35603;DHT22;21725;50.836;4.368;2023-04-28T05:35:32;13.60;99.90
35603;DHT22;21725;50.836;4.368;2023-04-28T05:38:40;13.80;99.90
35603;DHT22;21725;50.836;4.368;2023-04-28T05:41:51;13.70;99.90
35603;DHT22;21725;50.836;4.368;2023-04-28T05:44:57;13.70;99.90
35603;DHT22;21725;50.836;4.368;2023-04-28T05:47:57;13.70;99.90
35603;DHT22;21725;50.836;4.368;2023-04-28T05:51:03;13.70;99.90
35603;DHT22;21725;50.836;4.368;2023-04-28T05:54:24;13.80;99.90
35603;DHT22;21725;50.836;4.368;2023-04-28T05:57:30;13.90;99.90
35603;DHT22;21725;50.836;4.368;2023-04-28T06:00:39;14.00;99.90
35603;DHT22;21725;50.836;4.368;2023-04-28T06:03:52;13.70;99.90
35603;DHT22;21725;50.836;4.368;2023-04-28T06:07:13;14.20;99.90
35603;DHT22;21725;50.836;4.368;2023-04-28T06:10:18;14.40;99.90
35603;DHT22;21725;50.836;4.368;2023-04-28T06:13:24;14.20;99.90
35603;DHT22;21725;50.836;4.368;2023-04-28T06:16:42;14.40;99.90
35603;DHT22;21725;50.836;4.368;2023-04-28T06:19:43;14.30;99.90
35603;DHT22;21725;50.836;4.368;2023-04-28T06:23:06;14.30;99.90
35603;DHT22;21725;50.836;4.368;2023-04-28T06:26:11;14.70;99.90
35603;DHT22;21725;50.836;4.368;2023-04-28T06:29:16;14.40;99.90
35603;DHT22;21725;50.836;4.368;2023-04-28T06:32:25;14.60;99.90
35603;DHT22;21725;50.836;4.368;2023-04-28T06:39:11;14.40;99.90
35603;DHT22;21725;50.836;4.368;2023-04-28T06:42:20;13.50;99.90
35603;DHT22;21725;50.836;4.368;2023-04-28T06:49:18;14.50;99.90
35603;DHT22;21725;50.836;4.368;2023-04-28T06:55:45;14.70;99.90
35603;DHT22;21725;50.836;4.368;2023-04-28T06:58:59;14.90;99.90
35603;DHT22;21725;50.836;4.368;2023-04-28T07:02:11;14.90;99.90
35603;DHT22;21725;50.836;4.368;2023-04-28T07:05:22;14.80;99.90
35603;DHT22;21725;50.836;4.368;2023-04-28T07:08:28;14.80;99.90
35603;DHT22;21725;50.836;4.368;2023-04-28T07:11:30;14.80;99.90
35603;DHT22;21725;50.836;4.368;2023-04-28T07:14:32;14.90;99.90
35603;DHT22;21725;50.836;4.368;2023-04-28T07:17:38;14.90;99.90
35603;DHT22;21725;50.836;4.368;2023-04-28T07:20:45;14.90;99.90
35603;DHT22;21725;50.836;4.368;2023-04-28T07:23:53;14.80;99.90
35603;DHT22;21725;50.836;4.368;2023-04-28T07:27:02;14.80;99.90
35603;DHT22;21725;50.836;4.368;2023-04-28T07:30:17;14.70;99.90
35603;DHT22;21725;50.836;4.368;2023-04-28T07:33:39;14.70;99.90
35603;DHT22;21725;50.836;4.368;2023-04-28T07:36:50;14.90;99.90
35603;DHT22;21725;50.836;4.368;2023-04-28T07:40:22;15.40;99.90
35603;DHT22;21725;50.836;4.368;2023-04-28T07:44:09;16.50;99.90
35603;DHT22;21725;50.836;4.368;2023-04-28T07:47:39;17.50;99.90
35603;DHT22;21725;50.836;4.368;2023-04-28T07:50:57;18.10;99.90
35603;DHT22;21725;50.836;4.368;2023-04-28T07:54:18;18.30;99.90
35603;DHT22;21725;50.836;4.368;2023-04-28T07:57:22;19.30;99.90
35603;DHT22;21725;50.836;4.368;2023-04-28T08:00:28;19.50;99.90
35603;DHT22;21725;50.836;4.368;2023-04-28T08:03:32;18.90;99.90
35603;DHT22;21725;50.836;4.368;2023-04-28T08:06:38;18.20;99.90
35603;DHT22;21725;50.836;4.368;2023-04-28T08:09:39;17.50;99.90
35603;DHT22;21725;50.836;4.368;2023-04-28T08:12:47;17.30;99.90
35603;DHT22;21725;50.836;4.368;2023-04-28T08:15:53;17.00;99.90
35603;DHT22;21725;50.836;4.368;2023-04-28T08:19:00;16.90;99.90
35603;DHT22;21725;50.836;4.368;2023-04-28T08:22:23;16.50;99.90
35603;DHT22;21725;50.836;4.368;2023-04-28T08:25:32;16.20;99.90
35603;DHT22;21725;50.836;4.368;2023-04-28T08:28:56;16.50;99.90
35603;DHT22;21725;50.836;4.368;2023-04-28T08:31:59;16.40;99.90
35603;DHT22;21725;50.836;4.368;2023-04-28T08:35:24;16.40;99.90
35603;DHT22;21725;50.836;4.368;2023-04-28T08:38:30;16.40;99.90
35603;DHT22;21725;50.836;4.368;2023-04-28T08:42:01;16.50;99.90
35603;DHT22;21725;50.836;4.368;2023-04-28T08:45:03;16.40;99.90
35603;DHT22;21725;50.836;4.368;2023-04-28T08:48:27;16.50;99.90
35603;DHT22;21725;50.836;4.368;2023-04-28T08:51:40;16.80;99.90
35603;DHT22;21725;50.836;4.368;2023-04-28T08:54:56;15.50;99.90
35603;DHT22;21725;50.836;4.368;2023-04-28T08:58:14;16.90;99.90
35603;DHT22;21725;50.836;4.368;2023-04-28T09:01:35;16.70;99.90
35603;DHT22;21725;50.836;4.368;2023-04-28T09:04:54;16.70;99.90
35603;DHT22;21725;50.836;4.368;2023-04-28T09:08:04;16.60;99.90
35603;DHT22;21725;50.836;4.368;2023-04-28T09:11:28;16.60;99.90
35603;DHT22;21725;50.836;4.368;2023-04-28T09:14:37;16.60;99.90
35603;DHT22;21725;50.836;4.368;2023-04-28T09:17:52;16.80;99.90
35603;DHT22;21725;50.836;4.368;2023-04-28T09:21:04;17.10;99.90
35603;DHT22;21725;50.836;4.368;2023-04-28T09:24:10;17.20;99.90
35603;DHT22;21725;50.836;4.368;2023-04-28T09:27:28;17.30;99.90
35603;DHT22;21725;50.836;4.368;2023-04-28T09:30:55;17.40;99.90
35603;DHT22;21725;50.836;4.368;2023-04-28T09:33:57;17.50;99.90
35603;DHT22;21725;50.836;4.368;2023-04-28T09:37:21;17.60;99.90
35603;DHT22;21725;50.836;4.368;2023-04-28T09:40:30;17.90;99.90
35603;DHT22;21725;50.836;4.368;2023-04-28T09:43:53;18.10;99.90
35603;DHT22;21725;50.836;4.368;2023-04-28T09:50:41;18.00;99.90
35603;DHT22;21725;50.836;4.368;2023-04-28T09:53:41;17.90;99.90
35603;DHT22;21725;50.836;4.368;2023-04-28T09:57:12;17.90;99.90
35603;DHT22;21725;50.836;4.368;2023-04-28T10:00:27;17.80;99.90
35603;DHT22;21725;50.836;4.368;2023-04-28T10:03:33;17.90;99.90
35603;DHT22;21725;50.836;4.368;2023-04-28T10:06:42;18.00;99.90
35603;DHT22;21725;50.836;4.368;2023-04-28T10:09:51;18.20;99.90
35603;DHT22;21725;50.836;4.368;2023-04-28T10:13:35;18.00;99.90
35603;DHT22;21725;50.836;4.368;2023-04-28T10:16:58;18.20;99.90
35603;DHT22;21725;50.836;4.368;2023-04-28T10:20:02;18.20;99.90
35603;DHT22;21725;50.836;4.368;2023-04-28T10:30:33;17.90;99.90
35603;DHT22;21725;50.836;4.368;2023-04-28T10:33:47;17.70;99.90
35603;DHT22;21725;50.836;4.368;2023-04-28T10:37:00;17.80;99.90
35603;DHT22;21725;50.836;4.368;2023-04-28T10:40:32;17.70;99.90
35603;DHT22;21725;50.836;4.368;2023-04-28T10:43:46;17.70;99.90
35603;DHT22;21725;50.836;4.368;2023-04-28T10:47:02;17.40;99.90
35603;DHT22;21725;50.836;4.368;2023-04-28T10:50:20;17.90;99.90
35603;DHT22;21725;50.836;4.368;2023-04-28T10:57:24;17.40;99.90
35603;DHT22;21725;50.836;4.368;2023-04-28T11:00:37;17.70;99.90
35603;DHT22;21725;50.836;4.368;2023-04-28T11:04:14;17.80;99.90
35603;DHT22;21725;50.836;4.368;2023-04-28T11:07:20;17.80;99.90
35603;DHT22;21725;50.836;4.368;2023-04-28T11:17:53;17.40;99.90
35603;DHT22;21725;50.836;4.368;2023-04-28T11:21:05;17.10;99.90
35603;DHT22;21725;50.836;4.368;2023-04-28T11:27:54;17.40;99.90
35603;DHT22;21725;50.836;4.368;2023-04-28T11:31:13;16.70;99.90
35603;DHT22;21725;50.836;4.368;2023-04-28T11:34:25;16.80;99.90
35603;DHT22;21725;50.836;4.368;2023-04-28T11:37:32;15.90;99.90
35603;DHT22;21725;50.836;4.368;2023-04-28T11:40:33;16.70;99.90
35603;DHT22;21725;50.836;4.368;2023-04-28T11:43:35;16.70;99.90
35603;DHT22;21725;50.836;4.368;2023-04-28T11:46:56;16.60;99.90
35603;DHT22;21725;50.836;4.368;2023-04-28T11:50:00;16.60;99.90
35603;DHT22;21725;50.836;4.368;2023-04-28T11:53:02;16.50;99.90
35603;DHT22;21725;50.836;4.368;2023-04-28T11:56:06;16.20;99.90
35603;DHT22;21725;50.836;4.368;2023-04-28T11:59:11;16.50;99.90
35603;DHT22;21725;50.836;4.368;2023-04-28T12:02:12;16.60;99.90
35603;DHT22;21725;50.836;4.368;2023-04-28T12:05:16;16.50;99.90
35603;DHT22;21725;50.836;4.368;2023-04-28T12:08:28;16.40;99.90
35603;DHT22;21725;50.836;4.368;2023-04-28T12:11:32;16.60;99.90
35603;DHT22;21725;50.836;4.368;2023-04-28T12:14:56;16.30;99.90
35603;DHT22;21725;50.836;4.368;2023-04-28T12:18:11;16.50;99.90
35603;DHT22;21725;50.836;4.368;2023-04-28T12:21:28;16.60;99.90
35603;DHT22;21725;50.836;4.368;2023-04-28T12:24:31;16.80;99.90
35603;DHT22;21725;50.836;4.368;2023-04-28T12:31:04;17.00;99.90
35603;DHT22;21725;50.836;4.368;2023-04-28T12:34:11;16.60;99.90
35603;DHT22;21725;50.836;4.368;2023-04-28T12:37:15;16.60;99.90
35603;DHT22;21725;50.836;4.368;2023-04-28T12:40:29;16.70;99.90
35603;DHT22;21725;50.836;4.368;2023-04-28T12:43:38;16.90;99.90
35603;DHT22;21725;50.836;4.368;2023-04-28T12:46:48;16.50;99.90
35603;DHT22;21725;50.836;4.368;2023-04-28T12:49:59;16.40;99.90
35603;DHT22;21725;50.836;4.368;2023-04-28T12:53:18;16.40;99.90
35603;DHT22;21725;50.836;4.368;2023-04-28T12:56:38;16.50;99.90
35603;DHT22;21725;50.836;4.368;2023-04-28T12:59:52;16.40;99.90
35603;DHT22;21725;50.836;4.368;2023-04-28T13:03:00;16.50;99.90
35603;DHT22;21725;50.836;4.368;2023-04-28T13:06:19;16.60;99.90
35603;DHT22;21725;50.836;4.368;2023-04-28T13:09:27;16.40;99.90
35603;DHT22;21725;50.836;4.368;2023-04-28T13:12:41;16.50;99.90
35603;DHT22;21725;50.836;4.368;2023-04-28T13:15:56;16.60;99.90
35603;DHT22;21725;50.836;4.368;2023-04-28T13:19:11;17.10;99.90
35603;DHT22;21725;50.836;4.368;2023-04-28T13:22:33;17.20;99.90
35603;DHT22;21725;50.836;4.368;2023-04-28T13:25:37;16.90;99.90
35603;DHT22;21725;50.836;4.368;2023-04-28T13:28:41;16.80;99.90
35603;DHT22;21725;50.836;4.368;2023-04-28T13:31:50;16.70;99.90
35603;DHT22;21725;50.836;4.368;2023-04-28T13:34:53;16.50;99.90
35603;DHT22;21725;50.836;4.368;2023-04-28T13:38:03;16.40;99.90
35603;DHT22;21725;50.836;4.368;2023-04-28T13:41:29;16.50;99.90
35603;DHT22;21725;50.836;4.368;2023-04-28T13:44:36;16.60;99.90
35603;DHT22;21725;50.836;4.368;2023-04-28T13:47:43;16.60;99.90
35603;DHT22;21725;50.836;4.368;2023-04-28T13:51:42;16.40;99.90
35603;DHT22;21725;50.836;4.368;2023-04-28T13:54:48;16.60;99.90
35603;DHT22;21725;50.836;4.368;2023-04-28T14:01:35;16.50;99.90
35603;DHT22;21725;50.836;4.368;2023-04-28T14:04:38;16.50;99.90
35603;DHT22;21725;50.836;4.368;2023-04-28T14:07:52;16.60;99.90
35603;DHT22;21725;50.836;4.368;2023-04-28T14:11:09;16.60;99.90
35603;DHT22;21725;50.836;4.368;2023-04-28T14:14:23;16.60;99.90
35603;DHT22;21725;50.836;4.368;2023-04-28T14:17:48;16.70;99.90
35603;DHT22;21725;50.836;4.368;2023-04-28T14:20:56;16.80;99.90
35603;DHT22;21725;50.836;4.368;2023-04-28T14:24:01;16.80;99.90
35603;DHT22;21725;50.836;4.368;2023-04-28T14:27:08;16.80;99.90
35603;DHT22;21725;50.836;4.368;2023-04-28T14:30:12;16.90;99.90
35603;DHT22;21725;50.836;4.368;2023-04-28T14:33:15;16.90;99.90
35603;DHT22;21725;50.836;4.368;2023-04-28T14:36:22;17.00;99.90
35603;DHT22;21725;50.836;4.368;2023-04-28T14:39:33;17.00;99.90
35603;DHT22;21725;50.836;4.368;2023-04-28T14:42:35;16.90;99.90
35603;DHT22;21725;50.836;4.368;2023-04-28T14:45:36;16.90;99.90
35603;DHT22;21725;50.836;4.368;2023-04-28T14:48:49;16.90;99.90
35603;DHT22;21725;50.836;4.368;2023-04-28T14:51:55;17.00;99.90
35603;DHT22;21725;50.836;4.368;2023-04-28T14:54:58;17.10;99.90
35603;DHT22;21725;50.836;4.368;2023-04-28T14:58:12;17.30;99.90
35603;DHT22;21725;50.836;4.368;2023-04-28T15:01:26;17.40;99.90
35603;DHT22;21725;50.836;4.368;2023-04-28T15:04:27;17.40;99.90
35603;DHT22;21725;50.836;4.368;2023-04-28T15:07:40;17.50;99.90
35603;DHT22;21725;50.836;4.368;2023-04-28T15:10:41;17.80;99.90
35603;DHT22;21725;50.836;4.368;2023-04-28T15:13:54;17.70;99.90
35603;DHT22;21725;50.836;4.368;2023-04-28T15:16:58;17.60;99.90
35603;DHT22;21725;50.836;4.368;2023-04-28T15:19:59;17.30;99.90
35603;DHT22;21725;50.836;4.368;2023-04-28T15:23:10;17.60;99.90
35603;DHT22;21725;50.836;4.368;2023-04-28T15:26:11;17.80;99.90
35603;DHT22;21725;50.836;4.368;2023-04-28T15:29:20;17.90;99.90
35603;DHT22;21725;50.836;4.368;2023-04-28T15:32:22;18.10;99.90
35603;DHT22;21725;50.836;4.368;2023-04-28T15:35:25;17.90;99.90
35603;DHT22;21725;50.836;4.368;2023-04-28T15:38:31;17.90;99.90
35603;DHT22;21725;50.836;4.368;2023-04-28T15:41:34;17.60;99.90
35603;DHT22;21725;50.836;4.368;2023-04-28T15:44:35;17.40;99.90
35603;DHT22;21725;50.836;4.368;2023-04-28T15:47:41;17.10;99.90
35603;DHT22;21725;50.836;4.368;2023-04-28T15:50:45;16.90;99.90
35603;DHT22;21725;50.836;4.368;2023-04-28T15:53:51;17.00;99.90
35603;DHT22;21725;50.836;4.368;2023-04-28T15:56:59;17.00;99.90
35603;DHT22;21725;50.836;4.368;2023-04-28T16:00:12;16.90;99.90
35603;DHT22;21725;50.836;4.368;2023-04-28T16:03:16;16.90;99.90
35603;DHT22;21725;50.836;4.368;2023-04-28T16:06:20;16.80;99.90
35603;DHT22;21725;50.836;4.368;2023-04-28T16:09:31;16.00;99.90
35603;DHT22;21725;50.836;4.368;2023-04-28T16:12:34;16.50;99.90
35603;DHT22;21725;50.836;4.368;2023-04-28T16:15:38;16.50;99.90
35603;DHT22;21725;50.836;4.368;2023-04-28T16:18:46;16.40;99.90
35603;DHT22;21725;50.836;4.368;2023-04-28T16:22:10;16.30;99.90
35603;DHT22;21725;50.836;4.368;2023-04-28T16:25:13;16.30;99.90
35603;DHT22;21725;50.836;4.368;2023-04-28T16:28:27;16.30;99.90
35603;DHT22;21725;50.836;4.368;2023-04-28T16:31:30;16.40;99.90
35603;DHT22;21725;50.836;4.368;2023-04-28T16:34:39;16.30;99.90
35603;DHT22;21725;50.836;4.368;2023-04-28T16:37:41;16.20;99.90
35603;DHT22;21725;50.836;4.368;2023-04-28T16:40:52;16.10;99.90
35603;DHT22;21725;50.836;4.368;2023-04-28T16:43:56;16.00;99.90
35603;DHT22;21725;50.836;4.368;2023-04-28T16:47:13;15.90;99.90
35603;DHT22;21725;50.836;4.368;2023-04-28T16:50:24;15.60;99.90
35603;DHT22;21725;50.836;4.368;2023-04-28T16:53:34;15.70;99.90
35603;DHT22;21725;50.836;4.368;2023-04-28T16:56:44;15.70;99.90
35603;DHT22;21725;50.836;4.368;2023-04-28T17:00:04;15.70;99.90
35603;DHT22;21725;50.836;4.368;2023-04-28T17:03:16;15.60;99.90
35603;DHT22;21725;50.836;4.368;2023-04-28T17:06:24;15.60;99.90
35603;DHT22;21725;50.836;4.368;2023-04-28T17:09:25;15.80;99.90
35603;DHT22;21725;50.836;4.368;2023-04-28T17:12:27;15.50;99.90
35603;DHT22;21725;50.836;4.368;2023-04-28T17:15:28;15.50;99.90
35603;DHT22;21725;50.836;4.368;2023-04-28T17:18:39;15.50;99.90
35603;DHT22;21725;50.836;4.368;2023-04-28T17:21:50;15.50;99.90
35603;DHT22;21725;50.836;4.368;2023-04-28T17:24:52;15.50;99.90
35603;DHT22;21725;50.836;4.368;2023-04-28T17:27:56;15.30;99.90
35603;DHT22;21725;50.836;4.368;2023-04-28T17:30:59;15.40;99.90
35603;DHT22;21725;50.836;4.368;2023-04-28T17:34:15;15.40;99.90
35603;DHT22;21725;50.836;4.368;2023-04-28T17:37:19;15.40;99.90
35603;DHT22;21725;50.836;4.368;2023-04-28T17:40:22;14.80;99.90
35603;DHT22;21725;50.836;4.368;2023-04-28T17:43:29;15.40;99.90
35603;DHT22;21725;50.836;4.368;2023-04-28T17:46:33;15.30;99.90
35603;DHT22;21725;50.836;4.368;2023-04-28T17:49:37;15.20;99.90
35603;DHT22;21725;50.836;4.368;2023-04-28T17:52:42;15.20;99.90
35603;DHT22;21725;50.836;4.368;2023-04-28T17:55:50;15.70;99.90
35603;DHT22;21725;50.836;4.368;2023-04-28T17:58:54;14.60;99.90
35603;DHT22;21725;50.836;4.368;2023-04-28T18:01:57;15.60;99.90
35603;DHT22;21725;50.836;4.368;2023-04-28T18:04:58;15.00;99.90
35603;DHT22;21725;50.836;4.368;2023-04-28T18:08:05;14.90;99.90
35603;DHT22;21725;50.836;4.368;2023-04-28T18:11:10;14.30;99.90
35603;DHT22;21725;50.836;4.368;2023-04-28T18:14:10;14.90;99.90
35603;DHT22;21725;50.836;4.368;2023-04-28T18:17:11;14.90;99.90
35603;DHT22;21725;50.836;4.368;2023-04-28T18:20:15;14.90;99.90
35603;DHT22;21725;50.836;4.368;2023-04-28T18:23:16;14.90;99.90
35603;DHT22;21725;50.836;4.368;2023-04-28T18:26:19;14.90;99.90
35603;DHT22;21725;50.836;4.368;2023-04-28T18:29:22;14.80;99.90
35603;DHT22;21725;50.836;4.368;2023-04-28T18:32:22;14.80;99.90
35603;DHT22;21725;50.836;4.368;2023-04-28T18:35:23;14.80;99.90
35603;DHT22;21725;50.836;4.368;2023-04-28T18:38:33;14.90;99.90
35603;DHT22;21725;50.836;4.368;2023-04-28T18:41:35;14.80;99.90
35603;DHT22;21725;50.836;4.368;2023-04-28T18:44:37;14.80;99.90
35603;DHT22;21725;50.836;4.368;2023-04-28T18:47:40;14.80;99.90
35603;DHT22;21725;50.836;4.368;2023-04-28T18:50:41;14.80;99.90
35603;DHT22;21725;50.836;4.368;2023-04-28T18:53:42;14.80;99.90
35603;DHT22;21725;50.836;4.368;2023-04-28T18:56:43;14.80;99.90
35603;DHT22;21725;50.836;4.368;2023-04-28T18:59:47;14.80;99.90
35603;DHT22;21725;50.836;4.368;2023-04-28T19:02:48;14.80;99.90
35603;DHT22;21725;50.836;4.368;2023-04-28T19:05:49;14.80;99.90
35603;DHT22;21725;50.836;4.368;2023-04-28T19:08:50;14.90;99.90
35603;DHT22;21725;50.836;4.368;2023-04-28T19:11:51;14.90;99.90
35603;DHT22;21725;50.836;4.368;2023-04-28T19:14:58;14.90;99.90
35603;DHT22;21725;50.836;4.368;2023-04-28T19:17:58;14.80;99.90
35603;DHT22;21725;50.836;4.368;2023-04-28T19:21:03;14.80;99.90
35603;DHT22;21725;50.836;4.368;2023-04-28T19:24:04;14.70;99.90
35603;DHT22;21725;50.836;4.368;2023-04-28T19:27:06;14.70;99.90
35603;DHT22;21725;50.836;4.368;2023-04-28T19:30:12;14.60;99.90
35603;DHT22;21725;50.836;4.368;2023-04-28T19:33:13;14.60;99.90
35603;DHT22;21725;50.836;4.368;2023-04-28T19:36:13;14.60;99.90
35603;DHT22;21725;50.836;4.368;2023-04-28T19:39:14;14.60;99.90
35603;DHT22;21725;50.836;4.368;2023-04-28T19:42:15;14.70;99.90
35603;DHT22;21725;50.836;4.368;2023-04-28T19:45:16;14.70;99.90
35603;DHT22;21725;50.836;4.368;2023-04-28T19:48:17;14.70;99.90
35603;DHT22;21725;50.836;4.368;2023-04-28T19:51:18;14.80;99.90
35603;DHT22;21725;50.836;4.368;2023-04-28T19:54:20;14.90;99.90
35603;DHT22;21725;50.836;4.368;2023-04-28T19:57:21;14.80;99.90
35603;DHT22;21725;50.836;4.368;2023-04-28T20:00:23;14.80;99.90
35603;DHT22;21725;50.836;4.368;2023-04-28T20:03:25;14.80;99.90
35603;DHT22;21725;50.836;4.368;2023-04-28T20:06:26;14.70;99.90
35603;DHT22;21725;50.836;4.368;2023-04-28T20:09:27;14.60;99.90
35603;DHT22;21725;50.836;4.368;2023-04-28T20:12:28;14.60;99.90
35603;DHT22;21725;50.836;4.368;2023-04-28T20:15:31;14.60;99.90
35603;DHT22;21725;50.836;4.368;2023-04-28T20:18:33;14.60;99.90
35603;DHT22;21725;50.836;4.368;2023-04-28T20:21:34;14.60;99.90
35603;DHT22;21725;50.836;4.368;2023-04-28T20:24:36;14.70;99.90
35603;DHT22;21725;50.836;4.368;2023-04-28T20:27:38;14.70;99.90
35603;DHT22;21725;50.836;4.368;2023-04-28T20:30:39;14.70;99.90
35603;DHT22;21725;50.836;4.368;2023-04-28T20:33:43;14.60;99.90
35603;DHT22;21725;50.836;4.368;2023-04-28T20:36:44;14.50;99.90